Time;durP1;ratioP1;P1;durP2;ratioP2;P2;SDS_P1;SDS_P2;PMS_P1;PMS_P2;Temp;Humidity;BMP_temperature;BMP_pressure;BME280_temperature;BME280_humidity;BME280_pressure;Samples;Min_cycle;Max_cycle;Signal;HPM_P1;HPM_P2
2022/09/19 00:01:07;;;;;;;0.60;0.60;;;;;;;8.94;100.00;96129.00;5030747;27;101881;-61
2022/09/19 00:03:36;;;;;;;0.97;0.63;;;;;;;8.87;100.00;96128.38;5030872;28;105335;-61
2022/09/19 00:06:37;;;;;;;0.87;0.77;;;;;;;8.85;100.00;96122.53;5031075;27;101988;-61
2022/09/19 00:09:06;;;;;;;1.07;0.60;;;;;;;8.80;100.00;96112.66;5019012;28;102574;-61
2022/09/19 00:11:34;;;;;;;1.27;0.60;;;;;;;8.80;100.00;96103.91;5010073;28;104525;-61
2022/09/19 00:14:03;;;;;;;0.60;0.60;;;;;;;8.75;100.00;96106.47;5010734;28;101886;-61
2022/09/19 00:20:00;;;;;;;0.80;0.80;;;;;;;8.72;100.00;96112.28;5010198;28;103038;-61
2022/09/19 00:22:27;;;;;;;0.50;0.50;;;;;;;8.72;100.00;96107.00;5020898;28;103050;-61
2022/09/19 00:24:53;;;;;;;0.70;0.70;;;;;;;8.74;100.00;96103.03;5010828;28;102888;-61
2022/09/19 00:27:25;;;;;;;0.50;0.50;;;;;;;8.74;100.00;96105.69;5013334;28;102708;-61
2022/09/19 00:29:52;;;;;;;0.80;0.80;;;;;;;8.73;100.00;96098.75;5027805;28;102536;-61
2022/09/19 00:32:20;;;;;;;0.60;0.60;;;;;;;8.77;100.00;96109.72;5028513;28;105609;-61
2022/09/19 00:34:49;;;;;;;0.60;0.60;;;;;;;8.77;100.00;96104.41;5029231;28;101851;-61
2022/09/19 00:37:42;;;;;;;0.70;0.70;;;;;;;8.83;100.00;96108.72;5011583;28;105805;-61
2022/09/19 00:40:09;;;;;;;0.73;0.73;;;;;;;8.81;100.00;96094.88;5021002;28;105521;-61
2022/09/19 00:42:36;;;;;;;0.73;0.73;;;;;;;8.89;100.00;96110.38;5011671;28;101739;-61
2022/09/19 00:45:05;;;;;;;1.23;1.00;;;;;;;8.86;100.00;96102.91;5029269;28;105172;-61
2022/09/19 00:47:44;;;;;;;1.00;1.00;;;;;;;8.92;100.00;96118.66;5026810;28;105774;-61
2022/09/19 00:50:35;;;;;;;1.70;0.90;;;;;;;9.03;100.00;96124.88;5031850;28;101981;-61
2022/09/19 00:53:08;;;;;;;1.60;1.50;;;;;;;9.06;100.00;96113.78;5028624;28;105494;-61
2022/09/19 00:56:02;;;;;;;1.87;1.20;;;;;;;9.07;100.00;96116.19;5030131;27;101713;-61
2022/09/19 00:58:31;;;;;;;2.63;1.60;;;;;;;9.06;100.00;96119.88;5030026;27;102255;-61
2022/09/19 01:00:59;;;;;;;1.50;1.10;;;;;;;9.09;100.00;96118.56;5028094;28;105406;-61
2022/09/19 01:03:27;;;;;;;3.70;1.40;;;;;;;9.07;100.00;96136.59;5028886;28;101982;-61
2022/09/19 01:09:36;;;;;;;1.87;1.30;;;;;;;9.02;100.00;96120.63;5028102;28;105416;-61
2022/09/19 01:12:20;;;;;;;1.80;1.27;;;;;;;9.01;100.00;96119.00;5028649;28;101927;-61
2022/09/19 01:15:12;;;;;;;1.40;1.30;;;;;;;9.02;100.00;96118.78;5033130;28;102344;-61
2022/09/19 01:17:52;;;;;;;1.30;1.10;;;;;;;9.02;100.00;96117.97;5028728;28;101765;-61
2022/09/19 01:20:57;;;;;;;1.17;1.07;;;;;;;8.98;100.00;96117.66;5010162;28;102324;-61
2022/09/19 01:23:46;;;;;;;2.30;1.20;;;;;;;9.04;100.00;96116.66;4977238;28;105694;-61
2022/09/19 01:29:43;;;;;;;3.10;1.50;;;;;;;8.98;100.00;96127.44;5029654;27;105258;-61
2022/09/19 01:32:18;;;;;;;1.83;1.57;;;;;;;8.99;100.00;96123.78;5031264;28;106026;-61
2022/09/19 01:34:50;;;;;;;1.83;1.53;;;;;;;9.06;100.00;96133.13;5031879;28;101841;-61
2022/09/19 01:37:56;;;;;;;1.83;1.30;;;;;;;9.03;100.00;96140.78;5018878;28;104757;-61
2022/09/19 01:40:24;;;;;;;2.70;1.63;;;;;;;9.00;100.00;96150.03;5012151;28;101949;-61
2022/09/19 01:42:58;;;;;;;1.63;1.20;;;;;;;8.99;100.00;96150.28;5011989;28;104934;-61
2022/09/19 01:45:46;;;;;;;2.60;1.40;;;;;;;8.96;100.00;96154.25;5026617;28;105448;-61
2022/09/19 01:48:23;;;;;;;1.70;1.40;;;;;;;8.93;100.00;96156.56;5011725;28;101811;-62
2022/09/19 01:51:29;;;;;;;1.67;1.30;;;;;;;8.90;100.00;96143.81;5010982;28;104893;-62
2022/09/19 01:54:20;;;;;;;3.43;1.30;;;;;;;8.91;100.00;96153.34;5012570;28;102512;-62
2022/09/19 01:57:41;;;;;;;3.60;1.90;;;;;;;8.92;100.00;96144.34;5013057;28;102030;-62
2022/09/19 02:00:13;;;;;;;1.97;1.80;;;;;;;8.92;100.00;96141.69;5011661;28;105239;-62
2022/09/19 02:03:02;;;;;;;2.83;1.80;;;;;;;8.97;100.00;96142.56;5014144;28;105397;-61
2022/09/19 02:05:42;;;;;;;2.23;1.50;;;;;;;8.97;100.00;96144.41;5011572;28;105082;-61
2022/09/19 02:08:17;;;;;;;1.97;1.57;;;;;;;8.99;100.00;96145.00;5010614;28;105516;-61
2022/09/19 02:10:50;;;;;;;1.50;1.40;;;;;;;8.98;100.00;96148.66;5011490;28;101877;-61
2022/09/19 02:13:22;;;;;;;1.43;0.97;;;;;;;8.98;100.00;96138.88;5011529;28;105060;-61
2022/09/19 02:16:45;;;;;;;0.90;0.90;;;;;;;8.99;100.00;96145.78;5010513;28;104985;-62
2022/09/19 02:19:38;;;;;;;0.80;0.80;;;;;;;8.99;100.00;96137.03;5011508;28;101895;-62
2022/09/19 02:22:09;;;;;;;1.17;1.07;;;;;;;8.95;100.00;96138.56;5011311;28;104792;-62
2022/09/19 02:24:40;;;;;;;0.80;0.80;;;;;;;8.91;100.00;96137.44;5010654;28;105270;-62
2022/09/19 02:27:37;;;;;;;2.63;1.03;;;;;;;8.89;100.00;96160.75;5014636;28;102002;-62
2022/09/19 02:30:11;;;;;;;1.47;1.00;;;;;;;8.89;100.00;96219.09;5010296;28;105279;-62
2022/09/19 02:32:48;;;;;;;0.60;0.50;;;;;;;8.52;100.00;96197.63;5010984;28;101875;-61
2022/09/19 02:35:22;;;;;;;0.83;0.40;;;;;;;8.36;100.00;96208.22;5011094;28;105121;-61
2022/09/19 02:37:55;;;;;;;0.40;0.40;;;;;;;8.25;100.00;96193.19;5028443;28;105387;-62
2022/09/19 02:40:28;;;;;;;0.83;0.40;;;;;;;8.21;100.00;96194.69;5030109;28;101977;-61
2022/09/19 02:43:02;;;;;;;0.37;0.37;;;;;;;8.10;100.00;96216.72;5013302;28;104406;-61
2022/09/19 02:45:36;;;;;;;0.50;0.50;;;;;;;8.04;100.00;96204.44;5030455;28;103927;-62
2022/09/19 02:48:14;;;;;;;0.57;0.40;;;;;;;7.97;100.00;96214.41;5010481;28;101761;-62
2022/09/19 02:51:20;;;;;;;0.37;0.37;;;;;;;7.98;100.00;96226.59;5012803;28;103850;-61
2022/09/19 02:53:54;;;;;;;0.47;0.43;;;;;;;7.89;100.00;96228.00;5012140;28;101906;-62
2022/09/19 02:59:48;;;;;;;0.40;0.40;;;;;;;7.80;100.00;96229.44;5029898;28;105475;-61
2022/09/19 03:02:19;;;;;;;0.50;0.50;;;;;;;7.81;100.00;96237.13;5030312;28;101897;-62
2022/09/19 03:04:52;;;;;;;0.40;0.40;;;;;;;7.77;100.00;96238.66;5022647;28;105259;-61
2022/09/19 03:07:51;;;;;;;0.30;0.30;;;;;;;7.82;100.00;96240.59;5009896;28;105947;-62
2022/09/19 03:10:23;;;;;;;1.00;0.90;;;;;;;7.77;100.00;96245.78;5029901;28;101822;-61
2022/09/19 03:13:00;;;;;;;1.90;0.70;;;;;;;7.75;100.00;96248.66;5030420;28;105257;-62
2022/09/19 03:16:02;;;;;;;0.67;0.40;;;;;;;7.74;100.00;96262.16;5033058;28;104389;-62
2022/09/19 03:18:37;;;;;;;0.40;0.40;;;;;;;7.75;100.00;96256.59;5028791;28;105558;-61
2022/09/19 03:21:08;;;;;;;0.70;0.50;;;;;;;7.76;100.00;96274.09;5029792;28;105880;-61
2022/09/19 03:23:40;;;;;;;0.40;0.40;;;;;;;7.77;100.00;96269.59;5028221;28;101847;-62
2022/09/19 03:27:02;;;;;;;0.93;0.60;;;;;;;7.73;100.00;96271.09;5030240;28;105460;-62
2022/09/19 03:29:31;;;;;;;0.60;0.60;;;;;;;7.76;100.00;96271.47;5027723;28;105722;-61
2022/09/19 03:32:00;;;;;;;0.40;0.40;;;;;;;7.77;100.00;96283.66;5030313;28;101751;-61
2022/09/19 03:34:26;;;;;;;0.50;0.50;;;;;;;7.76;100.00;96275.94;5018758;28;105217;-61
2022/09/19 03:36:54;;;;;;;1.30;0.70;;;;;;;7.80;100.00;96283.16;5009566;28;104988;-61
2022/09/19 03:39:28;;;;;;;0.70;0.70;;;;;;;7.79;100.00;96288.72;5013349;28;101905;-61
2022/09/19 03:41:56;;;;;;;0.60;0.60;;;;;;;7.80;100.00;96277.88;5009489;28;105268;-62
2022/09/19 03:44:23;;;;;;;0.67;0.67;;;;;;;7.79;100.00;96278.91;5009947;28;102178;-62
2022/09/19 03:47:13;;;;;;;0.77;0.77;;;;;;;7.77;100.00;96281.00;5009992;28;105130;-62
2022/09/19 03:49:41;;;;;;;2.33;1.13;;;;;;;7.76;100.00;96289.19;5021296;28;105066;-62
2022/09/19 03:52:08;;;;;;;0.90;0.90;;;;;;;7.78;100.00;96295.03;5029851;27;101819;-62
2022/09/19 03:54:38;;;;;;;1.43;1.13;;;;;;;7.74;100.00;96291.25;5028018;28;104192;-62
2022/09/19 03:57:59;;;;;;;1.03;1.00;;;;;;;7.80;100.00;96300.91;5029016;28;105376;-62
2022/09/19 04:00:26;;;;;;;1.73;1.23;;;;;;;7.87;100.00;96296.28;5032887;28;101941;-62
2022/09/19 04:02:56;;;;;;;1.90;1.00;;;;;;;7.87;100.00;96305.03;5028989;28;104172;-62
2022/09/19 04:05:23;;;;;;;1.50;1.40;;;;;;;7.86;100.00;96307.91;5029240;28;101860;-62
2022/09/19 04:07:52;;;;;;;1.70;1.37;;;;;;;7.83;100.00;96308.38;5029946;28;105444;-61
2022/09/19 04:10:19;;;;;;;1.00;0.90;;;;;;;7.81;100.00;96315.75;5028813;28;104692;-62
2022/09/19 04:12:48;;;;;;;0.70;0.70;;;;;;;7.77;100.00;96315.41;5029638;28;101839;-62
2022/09/19 04:15:16;;;;;;;0.70;0.70;;;;;;;7.71;100.00;96328.78;5022513;28;103330;-61
2022/09/19 04:17:44;;;;;;;0.73;0.60;;;;;;;7.68;100.00;96329.25;5028886;28;105034;-61
2022/09/19 04:23:54;;;;;;;0.60;0.60;;;;;;;7.60;100.00;96343.66;5033254;28;102862;-62
2022/09/19 04:27:06;;;;;;;1.03;0.60;;;;;;;7.54;100.00;96346.41;5029502;28;101750;-61
2022/09/19 04:29:35;;;;;;;0.60;0.60;;;;;;;7.53;100.00;96350.88;5029003;28;104728;-61
2022/09/19 04:32:03;;;;;;;1.53;0.70;;;;;;;7.47;100.00;96354.47;5028721;28;105814;-61
2022/09/19 04:34:31;;;;;;;1.33;0.70;;;;;;;7.44;100.00;96362.88;5027654;28;102270;-61
2022/09/19 04:37:03;;;;;;;1.27;0.60;;;;;;;7.43;100.00;96368.38;5029325;28;105038;-61
2022/09/19 04:39:33;;;;;;;0.60;0.60;;;;;;;7.39;100.00;96368.06;5026772;28;105017;-61
2022/09/19 04:42:01;;;;;;;0.70;0.70;;;;;;;7.36;100.00;96383.59;5027717;28;101919;-61
2022/09/19 04:44:29;;;;;;;0.80;0.50;;;;;;;7.37;100.00;96382.53;5015506;28;103634;-61
2022/09/19 04:50:31;;;;;;;1.90;0.83;;;;;;;7.28;100.00;96389.19;5008413;28;104457;-61
2022/09/19 04:53:01;;;;;;;1.67;0.70;;;;;;;7.29;100.00;96396.91;5017925;28;105000;-61
2022/09/19 04:55:30;;;;;;;1.00;0.90;;;;;;;7.26;100.00;96394.72;5028625;28;101891;-69
2022/09/19 04:58:00;;;;;;;3.03;1.00;;;;;;;7.24;100.00;96393.31;5027708;28;104105;-62
2022/09/19 05:00:40;;;;;;;1.00;0.87;;;;;;;7.20;100.00;96397.50;5028167;28;105243;-62
2022/09/19 05:03:15;;;;;;;2.20;0.97;;;;;;;7.22;100.00;96400.69;5028636;27;101858;-62
2022/09/19 05:05:51;;;;;;;0.80;0.80;;;;;;;7.27;100.00;96406.09;5011986;28;104689;-62
2022/09/19 05:08:29;;;;;;;1.30;0.80;;;;;;;7.31;100.00;96410.69;5012035;28;105786;-62
2022/09/19 05:11:04;;;;;;;1.50;0.80;;;;;;;7.31;100.00;96410.69;5015833;28;101824;-62
2022/09/19 05:13:33;;;;;;;1.87;0.90;;;;;;;7.32;100.00;96403.59;5013384;28;105178;-62
2022/09/19 05:16:07;;;;;;;3.13;0.80;;;;;;;7.33;100.00;96413.13;5032358;28;101830;-62
2022/09/19 05:18:37;;;;;;;2.77;1.20;;;;;;;7.33;100.00;96419.22;5027179;28;105541;-62
2022/09/19 05:24:29;;;;;;;2.80;1.50;;;;;;;7.40;100.00;96419.09;5020822;28;101920;-62
2022/09/19 05:27:23;;;;;;;4.40;1.27;;;;;;;7.43;100.00;96418.66;5031809;28;104957;-62
2022/09/19 05:29:50;;;;;;;2.67;1.00;;;;;;;7.50;100.00;96422.81;5028265;28;102562;-62
2022/09/19 05:32:20;;;;;;;2.87;1.30;;;;;;;7.52;100.00;96431.31;5011772;28;103168;-62
2022/09/19 05:35:01;;;;;;;1.47;0.90;;;;;;;7.52;100.00;96425.22;5028311;28;104904;-62
2022/09/19 05:41:29;;;;;;;3.30;0.80;;;;;;;7.68;100.00;96445.72;5011781;28;105307;-61
2022/09/19 05:44:03;;;;;;;1.77;0.97;;;;;;;7.72;100.00;96438.91;5011281;28;105438;-62
2022/09/19 05:46:31;;;;;;;0.73;0.70;;;;;;;7.74;100.00;96447.44;5012769;28;101977;-61
2022/09/19 05:48:59;;;;;;;1.93;0.90;;;;;;;7.81;100.00;96450.75;5016305;28;104820;-62
2022/09/19 05:51:27;;;;;;;5.90;1.00;;;;;;;7.81;100.00;96450.75;5030980;28;104956;-62
2022/09/19 05:53:53;;;;;;;2.87;0.90;;;;;;;7.84;100.00;96447.63;5031491;28;101956;-62
2022/09/19 05:57:16;;;;;;;2.97;1.20;;;;;;;7.86;100.00;96451.66;5026656;28;105378;-62
2022/09/19 05:59:45;;;;;;;4.23;0.90;;;;;;;7.87;100.00;96460.41;5014154;28;101771;-61
2022/09/19 06:02:12;;;;;;;3.60;1.13;;;;;;;7.90;100.00;96457.31;5011433;28;105541;-62
2022/09/19 06:04:50;;;;;;;5.07;1.63;;;;;;;7.90;100.00;96467.91;5012090;28;105147;-62
2022/09/19 06:07:19;;;;;;;1.80;1.10;;;;;;;7.92;100.00;96465.81;5011473;28;102148;-62
2022/09/19 06:09:49;;;;;;;2.90;1.43;;;;;;;7.88;100.00;96467.31;5012268;28;105415;-62
2022/09/19 06:12:16;;;;;;;2.87;2.03;;;;;;;7.87;100.00;96468.34;5010845;28;105048;-62
2022/09/19 06:14:45;;;;;;;4.43;1.10;;;;;;;7.91;100.00;96466.88;5011009;28;101895;-62
2022/09/19 06:18:00;;;;;;;2.37;1.00;;;;;;;7.95;100.00;96454.75;5010299;28;104739;-61
2022/09/19 06:20:57;;;;;;;4.27;1.30;;;;;;;8.04;100.00;96469.25;5014024;28;105458;-62
2022/09/19 06:23:30;;;;;;;4.83;1.20;;;;;;;8.05;100.00;96466.38;5010829;28;105551;-62
2022/09/19 06:26:27;;;;;;;2.50;1.00;;;;;;;8.06;100.00;96462.69;5030774;28;104927;-62
2022/09/19 06:28:55;;;;;;;6.43;1.30;;;;;;;8.11;100.00;96464.63;5030779;28;101779;-62
2022/09/19 06:31:23;;;;;;;3.13;1.40;;;;;;;8.12;100.00;96471.56;5030808;28;105227;-62
2022/09/19 06:33:55;;;;;;;5.40;0.97;;;;;;;8.15;100.00;96482.50;5029133;28;105778;-62
2022/09/19 06:39:53;;;;;;;3.00;0.83;;;;;;;8.21;100.00;96491.38;5012833;28;104710;-62
2022/09/19 06:42:44;;;;;;;3.47;1.10;;;;;;;8.24;100.00;96485.63;5019363;28;105340;-62
2022/09/19 06:45:47;;;;;;;3.67;1.00;;;;;;;8.27;100.00;96485.13;5020090;28;102133;-63
2022/09/19 06:48:35;;;;;;;3.60;1.20;;;;;;;8.33;100.00;96487.66;5009653;28;102224;-63
2022/09/19 06:51:15;;;;;;;2.53;1.17;;;;;;;8.34;100.00;96486.63;5016602;28;103266;-63
2022/09/19 06:53:42;;;;;;;3.70;1.00;;;;;;;8.39;100.00;96489.38;5030435;28;105689;-64
2022/09/19 06:56:22;;;;;;;3.33;0.97;;;;;;;8.44;100.00;96483.38;5010860;28;104906;-63
2022/09/19 06:58:49;;;;;;;2.67;1.07;;;;;;;8.45;100.00;96485.78;5021568;28;101923;-63
2022/09/19 07:01:17;;;;;;;2.90;1.00;;;;;;;8.49;100.00;96483.47;5010619;28;104794;-63
2022/09/19 07:03:46;;;;;;;3.23;1.50;;;;;;;8.51;100.00;96487.50;5009751;28;105478;-64
2022/09/19 07:06:34;;;;;;;3.47;1.10;;;;;;;8.58;100.00;96500.63;5029288;28;101835;-63
2022/09/19 07:09:11;;;;;;;3.93;1.30;;;;;;;8.62;100.00;96504.44;5027251;28;105644;-64
2022/09/19 07:11:38;;;;;;;2.27;1.40;;;;;;;8.72;100.00;96509.94;5010334;28;101892;-64
2022/09/19 07:14:07;;;;;;;6.43;1.70;;;;;;;8.71;100.00;96516.25;5010242;28;105208;-62
2022/09/19 07:20:55;;;;;;;3.13;1.90;;;;;;;8.77;100.00;96525.94;5027499;28;101890;-63
2022/09/19 07:23:34;;;;;;;3.63;1.50;;;;;;;8.76;100.00;96527.78;5029846;28;104813;-63
2022/09/19 07:26:34;;;;;;;4.80;1.53;;;;;;;8.79;100.00;96537.91;5019993;28;106262;-64
2022/09/19 07:29:02;;;;;;;5.33;1.77;;;;;;;8.81;100.00;96540.31;5010023;28;102244;-64
2022/09/19 07:31:30;;;;;;;6.10;1.87;;;;;;;8.81;100.00;96541.13;5010206;28;105182;-64
2022/09/19 07:33:57;;;;;;;6.83;1.90;;;;;;;8.86;100.00;96546.53;5012487;28;105336;-63
2022/09/19 07:36:36;;;;;;;4.00;1.77;;;;;;;8.87;100.00;96555.28;5009620;28;104856;-63
2022/09/19 07:39:05;;;;;;;6.20;2.00;;;;;;;8.86;100.00;96553.69;5009505;28;105667;-63
2022/09/19 07:41:51;;;;;;;9.70;1.60;;;;;;;8.89;100.00;96556.66;5008637;28;101673;-64
2022/09/19 07:44:29;;;;;;;6.67;2.10;;;;;;;8.91;100.00;96551.94;5008247;28;102865;-63
2022/09/19 07:47:28;;;;;;;3.73;1.40;;;;;;;8.94;100.00;96566.59;5009423;28;105110;-64
2022/09/19 07:50:05;;;;;;;4.83;1.50;;;;;;;8.97;100.00;96560.78;5009680;28;102067;-64
2022/09/19 07:52:36;;;;;;;3.43;1.50;;;;;;;9.04;100.00;96566.75;5011125;28;102531;-63
2022/09/19 07:55:09;;;;;;;6.27;1.83;;;;;;;9.05;100.00;96565.75;5009047;28;105737;-63
2022/09/19 07:57:51;;;;;;;3.93;1.43;;;;;;;9.06;100.00;96565.47;5013117;28;102324;-63
2022/09/19 08:00:18;;;;;;;5.83;1.90;;;;;;;9.12;100.00;96580.47;5009236;28;105383;-63
2022/09/19 08:03:00;;;;;;;6.10;1.70;;;;;;;9.21;100.00;96583.56;5009992;28;101766;-63
2022/09/19 08:05:42;;;;;;;8.87;2.47;;;;;;;9.32;100.00;96569.44;5009455;28;105516;-63
2022/09/19 08:08:12;;;;;;;4.00;1.33;;;;;;;9.41;100.00;96568.81;5009023;28;104753;-63
2022/09/19 08:10:41;;;;;;;2.63;0.93;;;;;;;9.50;100.00;96571.88;5009374;28;101849;-63
2022/09/19 08:13:10;;;;;;;2.47;1.10;;;;;;;9.65;100.00;96580.91;5017483;28;104784;-63
2022/09/19 08:19:05;;;;;;;4.37;1.17;;;;;;;9.59;100.00;96586.38;5033138;28;101772;-64
2022/09/19 08:21:33;;;;;;;2.73;1.10;;;;;;;9.70;100.00;96594.28;5028497;28;105255;-63
2022/09/19 08:24:00;;;;;;;8.40;3.60;;;;;;;9.73;100.00;96608.94;5029169;28;101998;-63
2022/09/19 08:26:30;;;;;;;3.60;1.50;;;;;;;9.79;100.00;96602.66;5029202;28;105626;-64
2022/09/19 08:28:58;;;;;;;3.53;1.37;;;;;;;9.79;100.00;96606.13;5028979;28;105337;-64
2022/09/19 08:31:28;;;;;;;3.53;1.43;;;;;;;9.91;100.00;96590.09;5029356;28;101728;-64
2022/09/19 08:33:56;;;;;;;4.40;1.37;;;;;;;9.96;100.00;96593.66;5029133;28;104801;-63
2022/09/19 08:36:40;;;;;;;3.43;1.00;;;;;;;9.88;100.00;96601.22;5028185;28;105389;-64
2022/09/19 08:39:07;;;;;;;1.80;0.97;;;;;;;9.96;100.00;96598.97;5030063;27;101728;-64
2022/09/19 08:41:50;;;;;;;3.57;1.50;;;;;;;9.97;100.00;96599.78;5015754;28;105475;-64
2022/09/19 08:44:27;;;;;;;3.17;1.10;;;;;;;9.96;100.00;96598.16;5017885;28;101924;-64
2022/09/19 08:47:40;;;;;;;1.33;1.10;;;;;;;10.07;100.00;96603.44;5032935;28;104821;-64
2022/09/19 08:50:14;;;;;;;4.63;1.10;;;;;;;10.20;100.00;96604.97;5031720;28;105005;-64
2022/09/19 08:52:52;;;;;;;4.27;1.10;;;;;;;10.23;100.00;96615.91;5023202;28;101844;-64
2022/09/19 08:55:28;;;;;;;4.20;1.37;;;;;;;10.45;100.00;96608.81;5012506;28;105146;-64
2022/09/19 08:57:58;;;;;;;4.93;1.50;;;;;;;10.38;100.00;96610.84;5022644;28;105618;-63
2022/09/19 09:00:32;;;;;;;5.07;1.53;;;;;;;10.44;100.00;96614.34;5032800;28;102001;-63
2022/09/19 09:03:07;;;;;;;3.10;1.30;;;;;;;10.49;100.00;96623.22;5021183;28;103943;-63
2022/09/19 09:05:48;;;;;;;8.37;1.30;;;;;;;10.74;100.00;96623.56;5015250;28;105780;-63
2022/09/19 09:08:30;;;;;;;3.70;1.50;;;;;;;10.72;100.00;96615.03;5026254;28;103627;-63
2022/09/19 09:11:22;;;;;;;2.53;1.40;;;;;;;10.84;100.00;96614.94;5032571;27;103023;-64
2022/09/19 09:13:59;;;;;;;4.80;1.40;;;;;;;10.69;100.00;96625.38;5032332;28;101890;-64
2022/09/19 09:17:04;;;;;;;2.77;0.83;;;;;;;10.79;100.00;96618.31;5032267;28;105150;-63
2022/09/19 09:20:06;;;;;;;1.93;1.10;;;;;;;10.81;100.00;96624.22;5031401;28;105839;-63
2022/09/19 09:22:39;;;;;;;1.93;0.90;;;;;;;11.07;100.00;96628.00;5022462;28;102437;-63
2022/09/19 09:25:46;;;;;;;1.50;0.90;;;;;;;11.59;100.00;96626.50;5011844;28;102421;-64
2022/09/19 09:28:25;;;;;;;2.00;1.20;;;;;;;11.83;100.00;96635.81;5011693;28;105511;-64
2022/09/19 09:31:17;;;;;;;2.13;1.00;;;;;;;11.93;100.00;96618.06;5031416;28;101937;-64
2022/09/19 09:33:53;;;;;;;5.13;1.37;;;;;;;11.89;100.00;96622.28;5031228;28;105494;-64
2022/09/19 09:36:26;;;;;;;2.93;1.03;;;;;;;11.95;100.00;96623.13;5030536;28;102175;-64
2022/09/19 09:39:01;;;;;;;4.17;1.30;;;;;;;11.68;100.00;96630.34;5032040;28;104773;-64
2022/09/19 09:41:48;;;;;;;1.10;0.73;;;;;;;11.62;100.00;96623.34;5031489;28;105311;-64
2022/09/19 09:44:44;;;;;;;3.93;1.57;;;;;;;12.05;100.00;96628.56;5012059;28;102137;-64
2022/09/19 09:47:44;;;;;;;5.40;0.90;;;;;;;12.06;100.00;96622.16;5011543;28;104665;-66
2022/09/19 09:50:46;;;;;;;3.43;1.07;;;;;;;12.18;100.00;96630.81;5009755;28;105585;-64
2022/09/19 09:53:25;;;;;;;1.63;0.90;;;;;;;12.04;100.00;96632.28;5011689;28;101982;-63
2022/09/19 09:56:14;;;;;;;3.87;0.80;;;;;;;11.79;100.00;96637.38;5014520;28;104917;-64
2022/09/19 09:58:52;;;;;;;2.27;0.97;;;;;;;11.90;100.00;96615.09;5011533;28;102072;-63
2022/09/19 10:04:30;;;;;;;4.67;1.07;;;;;;;11.88;100.00;96634.00;5030999;28;104099;-63
2022/09/19 10:07:22;;;;;;;1.57;0.60;;;;;;;12.12;100.00;96626.50;5031901;28;101803;-64
2022/09/19 10:09:58;;;;;;;2.83;0.90;;;;;;;11.98;100.00;96614.63;5031622;28;105159;-64
2022/09/19 10:12:29;;;;;;;1.83;0.70;;;;;;;12.06;100.00;96622.16;5030738;28;105701;-63
2022/09/19 10:15:02;;;;;;;2.27;0.80;;;;;;;12.30;100.00;96636.75;5031463;28;102011;-64
2022/09/19 10:18:18;;;;;;;4.27;0.80;;;;;;;12.02;100.00;96615.72;5031312;28;105390;-64
2022/09/19 10:21:21;;;;;;;2.47;0.80;;;;;;;12.15;100.00;96620.66;5034130;28;105191;-64
2022/09/19 10:23:53;;;;;;;1.47;0.70;;;;;;;12.42;100.00;96622.19;5031217;28;104678;-64
2022/09/19 10:26:30;;;;;;;1.70;0.87;;;;;;;12.37;100.00;96624.81;5030756;28;105698;-64
2022/09/19 10:29:00;;;;;;;6.07;1.60;;;;;;;12.29;100.00;96625.31;5031350;28;101915;-64
2022/09/19 10:31:41;;;;;;;2.97;1.03;;;;;;;12.07;100.00;96624.59;5029403;27;102165;-64
2022/09/19 10:34:35;;;;;;;2.43;0.90;;;;;;;12.42;100.00;96621.41;5022093;27;103109;-63
2022/09/19 10:37:32;;;;;;;3.23;1.00;;;;;;;12.40;100.00;96637.66;5026758;28;101865;-63
2022/09/19 10:40:02;;;;;;;1.47;0.87;;;;;;;12.17;100.00;96645.19;5011006;28;105202;-64
2022/09/19 10:42:40;;;;;;;1.37;0.70;;;;;;;12.07;100.00;96635.25;5013821;28;105032;-64
2022/09/19 10:45:25;;;;;;;0.93;0.83;;;;;;;12.05;100.00;96626.69;5010748;28;105082;-64
2022/09/19 10:47:56;;;;;;;1.97;0.80;;;;;;;12.09;100.00;96625.13;5010367;28;105047;-64
2022/09/19 10:50:24;;;;;;;3.03;1.13;;;;;;;12.34;100.00;96624.53;5008384;28;101903;-64
2022/09/19 10:53:05;;;;;;;4.80;0.87;;;;;;;12.30;100.00;96628.75;5010690;28;105342;-64
2022/09/19 10:56:11;;;;;;;3.50;1.10;;;;;;;12.34;100.00;96643.19;5010343;28;105716;-64
2022/09/19 10:58:42;;;;;;;2.50;0.90;;;;;;;11.95;100.00;96647.13;5010620;28;102019;-64
2022/09/19 11:01:24;;;;;;;3.20;1.07;;;;;;;11.80;100.00;96641.63;5010056;28;105173;-63
2022/09/19 11:04:04;;;;;;;1.87;0.80;;;;;;;11.72;100.00;96639.44;5009894;28;105092;-64
2022/09/19 11:06:56;;;;;;;1.40;0.70;;;;;;;11.84;100.00;96632.09;5013988;28;101751;-64
2022/09/19 11:09:28;;;;;;;1.90;0.73;;;;;;;11.93;100.00;96643.91;5009843;28;105862;-64
2022/09/19 11:12:04;;;;;;;2.17;0.80;;;;;;;11.94;100.00;96645.53;5010532;28;101899;-64
2022/09/19 11:14:39;;;;;;;1.60;0.70;;;;;;;11.94;100.00;96651.63;5011910;28;102427;-64
2022/09/19 11:17:29;;;;;;;2.60;1.03;;;;;;;12.18;100.00;96641.47;5009791;28;105081;-63
2022/09/19 11:20:16;;;;;;;1.33;0.77;;;;;;;12.12;100.00;96651.28;5010119;28;102359;-64
2022/09/19 11:23:13;;;;;;;1.23;0.87;;;;;;;11.97;100.00;96640.50;5018757;28;104596;-64
2022/09/19 11:25:55;;;;;;;1.47;0.60;;;;;;;12.16;100.00;96639.03;5027819;28;104728;-64
2022/09/19 11:28:30;;;;;;;2.77;0.83;;;;;;;12.22;100.00;96635.34;5024191;28;101911;-63
2022/09/19 11:31:07;;;;;;;2.80;0.70;;;;;;;12.30;100.00;96629.56;5016747;28;104658;-65
2022/09/19 11:33:56;;;;;;;2.33;1.00;;;;;;;12.29;100.00;96643.16;5014649;28;101907;-64
2022/09/19 11:36:51;;;;;;;2.60;0.90;;;;;;;12.39;100.00;96644.06;5011004;28;105222;-65
2022/09/19 11:39:31;;;;;;;1.67;1.00;;;;;;;12.51;100.00;96647.34;5009568;28;105939;-64
2022/09/19 11:42:10;;;;;;;2.70;1.30;;;;;;;12.59;100.00;96643.41;5009676;28;101863;-63
2022/09/19 11:44:52;;;;;;;3.30;1.20;;;;;;;12.53;100.00;96639.09;5010406;28;105306;-64
2022/09/19 11:48:00;;;;;;;1.23;1.10;;;;;;;12.66;100.00;96646.63;5008769;28;105425;-63
2022/09/19 11:50:39;;;;;;;2.47;0.87;;;;;;;12.72;100.00;96637.59;4997699;28;102379;-63
2022/09/19 11:53:28;;;;;;;2.40;0.90;;;;;;;12.90;100.00;96634.50;5009603;28;105302;-64
2022/09/19 11:56:52;;;;;;;4.63;1.27;;;;;;;13.18;100.00;96628.81;5012413;28;105482;-63
2022/09/19 11:59:33;;;;;;;1.80;0.60;;;;;;;13.02;100.00;96629.81;4993626;28;105096;-63
2022/09/19 12:02:24;;;;;;;2.30;0.97;;;;;;;13.22;100.00;96625.38;5027557;28;104067;-64
2022/09/19 12:05:04;;;;;;;1.67;0.70;;;;;;;13.01;100.00;96637.00;5026710;28;101790;-63
2022/09/19 12:07:57;;;;;;;2.93;0.90;;;;;;;12.84;100.00;96631.03;5009619;28;105533;-63
2022/09/19 12:10:29;;;;;;;1.80;1.00;;;;;;;12.88;100.00;96636.63;5015491;28;105113;-63
2022/09/19 12:13:04;;;;;;;1.87;1.10;;;;;;;13.01;100.00;96637.00;5029515;28;101857;-62
2022/09/19 12:15:55;;;;;;;3.70;1.00;;;;;;;13.16;100.00;96617.59;5016413;28;104768;-63
2022/09/19 12:18:26;;;;;;;2.33;1.20;;;;;;;13.19;100.00;96611.75;5008838;28;105469;-63
2022/09/19 12:21:24;;;;;;;2.30;0.90;;;;;;;13.19;100.00;96615.19;5012714;28;101805;-63
2022/09/19 12:27:15;;;;;;;0.70;0.40;;;;;;;13.26;100.00;96610.44;5029220;28;101946;-62
2022/09/19 12:29:49;;;;;;;6.80;2.73;;;;;;;13.23;100.00;96610.94;5028476;28;105126;-63
2022/09/19 12:32:25;;;;;;;2.07;0.97;;;;;;;13.39;100.00;96609.94;5026970;28;105496;-63
2022/09/19 12:35:01;;;;;;;1.83;0.90;;;;;;;13.17;100.00;96603.16;5009758;28;101970;-63
2022/09/19 12:37:44;;;;;;;1.73;1.00;;;;;;;12.98;100.00;96604.69;5009191;28;105183;-63
2022/09/19 12:40:28;;;;;;;2.30;1.23;;;;;;;12.96;100.00;96602.28;5008488;28;105556;-63
2022/09/19 12:43:04;;;;;;;2.77;0.90;;;;;;;13.09;100.00;96593.00;5009157;28;102246;-63
2022/09/19 12:45:38;;;;;;;1.40;1.10;;;;;;;13.39;100.00;96598.44;5016758;28;105596;-63
2022/09/19 12:48:15;;;;;;;1.93;0.90;;;;;;;13.77;100.00;96598.00;5028705;28;101959;-63
2022/09/19 12:51:10;;;;;;;1.53;1.10;;;;;;;13.45;100.00;96597.38;5029103;27;103412;-62
2022/09/19 12:53:44;;;;;;;1.23;0.70;;;;;;;13.74;100.00;96593.19;5028408;28;105867;-63
2022/09/19 12:56:35;;;;;;;1.50;0.70;;;;;;;13.54;100.00;96583.28;5030255;27;101713;-63
2022/09/19 12:59:12;;;;;;;2.00;0.80;;;;;;;13.45;100.00;96589.38;5018368;28;102421;-63
2022/09/19 13:01:43;;;;;;;0.50;0.50;;;;;;;13.51;100.00;96583.00;5009682;28;103197;-63